createdAt,value
2022-12-11T00:00:08.404Z,39.60
2022-12-11T00:02:35.207Z,38.15
2022-12-11T00:05:02.144Z,32.78
2022-12-11T00:07:28.885Z,32.70
2022-12-11T00:09:55.549Z,40.45
2022-12-11T00:12:22.650Z,38.78
2022-12-11T00:14:49.406Z,36.33
2022-12-11T00:17:16.053Z,36.30
2022-12-11T00:19:42.700Z,30.02
2022-12-11T00:22:09.562Z,34.38
2022-12-11T00:24:36.215Z,38.17
2022-12-11T00:27:02.924Z,28.25
2022-12-11T00:29:29.694Z,28.83
2022-12-11T00:31:56.513Z,23.42
2022-12-11T00:34:23.233Z,28.25
2022-12-11T00:36:50.000Z,30.05
2022-12-11T00:39:16.737Z,37.00
2022-12-11T00:41:43.606Z,36.78
2022-12-11T00:44:10.510Z,26.45
2022-12-11T00:46:37.596Z,31.38
2022-12-11T00:49:04.489Z,28.83
2022-12-11T00:51:31.316Z,28.83
2022-12-11T00:53:57.964Z,26.27
2022-12-11T00:56:25.451Z,25.42
2022-12-11T00:58:52.391Z,22.00
2022-12-11T01:01:22.952Z,27.40
2022-12-11T01:03:50.092Z,24.77
2022-12-11T01:06:20.845Z,18.48
2022-12-11T01:08:48.241Z,27.77
2022-12-11T01:11:16.621Z,30.45
2022-12-11T01:13:43.596Z,24.17
2022-12-11T01:16:13.933Z,22.00
2022-12-11T01:18:41.078Z,23.63
2022-12-11T01:21:10.368Z,31.48
2022-12-11T01:23:37.337Z,32.47
2022-12-11T01:26:09.699Z,19.02
2022-12-11T01:28:36.957Z,22.15
2022-12-11T01:31:08.526Z,20.52
2022-12-11T01:33:35.219Z,21.63
2022-12-11T01:36:02.202Z,22.98
2022-12-11T01:38:28.828Z,20.73
2022-12-11T01:40:55.463Z,21.17
2022-12-11T01:43:22.181Z,16.38
2022-12-11T01:45:49.312Z,22.30
2022-12-11T01:48:28.841Z,14.25
2022-12-11T01:51:00.171Z,19.35
2022-12-11T01:53:31.825Z,19.50
2022-12-11T01:55:59.335Z,20.60
2022-12-11T01:58:34.128Z,21.30
2022-12-11T02:01:03.264Z,19.25
2022-12-11T02:03:30.045Z,17.15
2022-12-11T02:06:00.561Z,15.20
2022-12-11T02:08:27.383Z,23.10
2022-12-11T02:11:21.888Z,23.05
2022-12-11T02:14:13.205Z,19.33
2022-12-11T02:16:57.598Z,18.25
2022-12-11T02:20:01.672Z,24.27
2022-12-11T02:22:47.774Z,26.20
2022-12-11T02:25:46.418Z,15.18
2022-12-11T02:28:16.338Z,15.50
2022-12-11T02:30:49.554Z,17.42
2022-12-11T02:33:20.497Z,24.77
2022-12-11T02:35:49.215Z,22.02
2022-12-11T02:38:24.527Z,16.52
2022-12-11T02:40:53.333Z,20.25
2022-12-11T02:43:22.443Z,18.83
2022-12-11T02:45:51.696Z,23.42
2022-12-11T02:48:20.686Z,15.77
2022-12-11T02:50:51.457Z,21.45
2022-12-11T02:53:24.046Z,11.48
2022-12-11T02:55:57.004Z,22.75
2022-12-11T02:58:31.148Z,20.55
2022-12-11T03:00:57.976Z,19.45
2022-12-11T03:03:25.015Z,19.80
2022-12-11T03:05:51.741Z,21.48
2022-12-11T03:08:18.814Z,14.52
2022-12-11T03:10:46.545Z,15.50
2022-12-11T03:13:17.042Z,22.52
2022-12-11T03:15:55.933Z,18.08
2022-12-11T03:18:22.592Z,14.43
2022-12-11T03:21:09.410Z,13.48
2022-12-11T03:23:55.465Z,20.60
2022-12-11T03:26:24.082Z,16.50
2022-12-11T03:29:04.334Z,20.00
2022-12-11T03:31:39.118Z,19.65
2022-12-11T03:34:18.241Z,19.55
2022-12-11T03:36:47.786Z,22.55
2022-12-11T03:39:23.274Z,30.08
2022-12-11T03:41:52.004Z,18.13
2022-12-11T03:44:21.042Z,21.67
2022-12-11T03:46:50.599Z,18.88
2022-12-11T03:49:22.951Z,15.10
2022-12-11T03:51:56.213Z,16.58
2022-12-11T03:54:24.892Z,13.63
2022-12-11T03:56:55.065Z,19.73
2022-12-11T03:59:22.045Z,13.13
2022-12-11T04:01:48.774Z,16.02
2022-12-11T04:04:15.593Z,17.80
2022-12-11T04:06:42.419Z,16.85
2022-12-11T04:09:09.190Z,13.18
2022-12-11T04:11:35.966Z,14.93
2022-12-11T04:14:22.688Z,19.83
2022-12-11T04:16:49.374Z,20.00
2022-12-11T04:19:35.053Z,12.98
2022-12-11T04:22:20.161Z,16.77
2022-12-11T04:24:50.569Z,11.70
2022-12-11T04:27:38.266Z,16.23
2022-12-11T04:30:08.915Z,13.75
2022-12-11T04:32:35.633Z,14.90
2022-12-11T04:35:02.536Z,17.73
2022-12-11T04:37:29.418Z,17.13
2022-12-11T04:39:56.091Z,17.27
2022-12-11T04:42:22.794Z,16.30
2022-12-11T04:44:49.633Z,16.60
2022-12-11T04:47:16.659Z,17.40
2022-12-11T04:49:43.579Z,17.33
2022-12-11T04:52:10.607Z,16.80
2022-12-11T04:54:37.276Z,21.42
2022-12-11T04:57:03.988Z,17.42
2022-12-11T04:59:33.178Z,18.67
2022-12-11T05:01:59.923Z,17.52
2022-12-11T05:04:32.105Z,14.88
2022-12-11T05:06:59.215Z,19.83
2022-12-11T05:09:27.186Z,12.05
2022-12-11T05:11:54.648Z,13.98
2022-12-11T05:14:22.053Z,17.38
2022-12-11T05:16:49.105Z,17.60
2022-12-11T05:19:16.813Z,20.40
2022-12-11T05:21:43.624Z,23.45
2022-12-11T05:24:10.348Z,19.13
2022-12-11T05:26:37.096Z,15.45
2022-12-11T05:29:04.010Z,21.45
2022-12-11T05:31:30.731Z,18.75
2022-12-11T05:33:57.451Z,17.73
2022-12-11T05:36:27.037Z,18.17
2022-12-11T05:38:54.379Z,22.30
2022-12-11T05:41:25.382Z,18.30
2022-12-11T05:43:52.471Z,14.25
2022-12-11T05:46:22.366Z,14.88
2022-12-11T05:48:51.362Z,18.60
2022-12-11T05:51:18.811Z,17.80
2022-12-11T05:53:47.144Z,16.35
2022-12-11T05:56:16.930Z,22.20
2022-12-11T05:58:44.634Z,16.40
2022-12-11T06:01:14.717Z,18.25
2022-12-11T06:03:41.824Z,14.75
2022-12-11T06:06:08.862Z,20.15
2022-12-11T06:08:35.718Z,22.02
2022-12-11T06:11:03.504Z,20.08
2022-12-11T06:13:30.680Z,13.45
2022-12-11T06:16:04.456Z,20.67
2022-12-11T06:18:31.798Z,19.08
2022-12-11T06:20:58.509Z,13.15
2022-12-11T06:23:25.153Z,17.83
2022-12-11T06:28:27.901Z,17.88
2022-12-11T06:30:54.591Z,12.80
2022-12-11T06:35:57.154Z,26.25
2022-12-11T06:38:24.787Z,15.35
2022-12-11T06:40:59.682Z,17.90
2022-12-11T06:43:26.454Z,20.10
2022-12-11T06:45:53.257Z,15.30
2022-12-11T06:48:20.824Z,18.95
2022-12-11T06:50:47.573Z,14.73
2022-12-11T06:53:15.417Z,16.50
2022-12-11T06:55:43.283Z,15.60
2022-12-11T06:58:11.229Z,14.27
2022-12-11T07:00:38.965Z,14.38
2022-12-11T07:03:06.694Z,16.42
2022-12-11T07:05:34.124Z,16.25
2022-12-11T07:08:01.364Z,13.85
2022-12-11T07:10:28.148Z,14.75
2022-12-11T07:12:55.015Z,13.80
2022-12-11T07:15:21.671Z,17.13
2022-12-11T07:17:48.451Z,19.67
2022-12-11T07:20:15.639Z,14.52
2022-12-11T07:22:46.383Z,14.88
2022-12-11T07:25:13.931Z,16.75
2022-12-11T07:27:41.652Z,17.58
2022-12-11T07:30:09.712Z,13.13
2022-12-11T07:32:36.717Z,11.88
2022-12-11T07:35:04.197Z,12.15
2022-12-11T07:37:30.889Z,16.95
2022-12-11T07:39:57.577Z,12.63
2022-12-11T07:42:24.274Z,11.57
2022-12-11T07:44:51.007Z,16.95
2022-12-11T07:47:17.770Z,11.55
2022-12-11T07:49:44.450Z,14.73
2022-12-11T07:52:11.308Z,10.50
2022-12-11T07:54:38.173Z,11.68
2022-12-11T07:57:06.257Z,15.20
2022-12-11T07:59:34.769Z,13.68
2022-12-11T08:02:01.532Z,14.38
2022-12-11T08:07:03.625Z,14.43
2022-12-11T08:09:30.488Z,13.60
2022-12-11T08:11:57.149Z,15.77
2022-12-11T08:14:23.814Z,11.00
2022-12-11T08:16:50.511Z,13.75
2022-12-11T08:19:18.120Z,13.88
2022-12-11T08:21:45.253Z,19.88
2022-12-11T08:24:11.888Z,11.38
2022-12-11T08:26:38.693Z,15.35
2022-12-11T08:29:05.650Z,16.73
2022-12-11T08:31:33.070Z,19.73
2022-12-11T08:33:59.895Z,17.65
2022-12-11T08:36:26.906Z,19.25
2022-12-11T08:38:55.946Z,21.17
2022-12-11T08:41:28.554Z,18.92
2022-12-11T08:43:57.762Z,17.63
2022-12-11T08:46:33.026Z,16.42
2022-12-11T08:49:00.226Z,14.45
2022-12-11T09:07:25.616Z,19.20
2022-12-11T09:09:54.825Z,16.27
2022-12-11T09:12:21.945Z,19.98
2022-12-11T09:14:48.655Z,15.98
2022-12-11T09:17:15.364Z,16.65
2022-12-11T09:19:41.995Z,16.75
2022-12-11T09:22:11.279Z,15.20
2022-12-11T09:24:38.669Z,18.25
2022-12-11T09:45:55.386Z,17.77
2022-12-11T09:48:24.482Z,18.75
2022-12-11T09:50:55.255Z,16.70
2022-12-11T09:53:35.946Z,16.55
2022-12-11T09:56:21.313Z,23.23
2022-12-11T09:58:50.675Z,14.73
2022-12-11T10:01:22.688Z,17.77
2022-12-11T10:04:07.546Z,22.67
2022-12-11T10:06:46.614Z,16.13
2022-12-11T10:09:24.424Z,15.27
2022-12-11T10:11:56.676Z,16.38
2022-12-11T10:14:43.926Z,15.80
2022-12-11T10:17:20.458Z,17.95
2022-12-11T10:19:48.334Z,17.30
2022-12-11T10:22:25.086Z,20.67
2022-12-11T10:25:14.501Z,16.35
2022-12-11T10:27:41.842Z,18.90
2022-12-11T10:30:15.100Z,19.30
2022-12-11T10:32:44.823Z,20.58
2022-12-11T10:35:38.080Z,23.30
2022-12-11T10:38:13.336Z,20.02
2022-12-11T10:40:50.659Z,19.67
2022-12-11T10:43:17.561Z,16.00
2022-12-11T10:45:54.486Z,18.90
2022-12-11T10:48:22.299Z,19.13
2022-12-11T10:51:05.438Z,22.45
2022-12-11T10:53:34.509Z,17.30
2022-12-11T10:58:41.425Z,15.63
2022-12-11T11:01:18.900Z,17.38
2022-12-11T11:06:33.652Z,20.23
2022-12-11T11:09:02.033Z,14.50
2022-12-11T11:11:35.331Z,16.10
2022-12-11T11:14:07.564Z,17.40
2022-12-11T11:16:37.872Z,19.75
2022-12-11T11:19:06.016Z,22.73
2022-12-11T11:21:34.671Z,19.20
2022-12-11T11:24:01.469Z,19.67
2022-12-11T11:27:04.334Z,13.52
2022-12-11T11:29:28.805Z,21.35
2022-12-11T11:31:55.656Z,20.65
2022-12-11T11:34:22.531Z,17.60
2022-12-11T11:48:30.092Z,18.40
2022-12-11T11:50:58.456Z,21.20
2022-12-11T11:53:27.573Z,17.85
2022-12-11T11:56:18.939Z,15.82
2022-12-11T11:59:02.517Z,21.67
2022-12-11T12:01:33.496Z,18.48
2022-12-11T12:04:11.268Z,28.67
2022-12-11T12:47:17.050Z,20.52
2022-12-11T12:49:47.179Z,22.50
2022-12-11T12:52:18.691Z,16.15
2022-12-11T12:55:09.854Z,23.70
2022-12-11T12:57:39.353Z,18.05
2022-12-11T13:00:13.045Z,22.75
2022-12-11T13:02:51.089Z,20.08
2022-12-11T13:05:26.791Z,21.85
2022-12-11T13:07:59.570Z,14.70
2022-12-11T13:10:33.297Z,18.23
2022-12-11T13:13:01.678Z,25.05
2022-12-11T13:15:44.608Z,18.10
2022-12-11T13:18:35.809Z,18.00
2022-12-11T13:21:23.897Z,22.23
2022-12-11T13:23:52.131Z,22.27
2022-12-11T13:26:32.881Z,19.30
2022-12-11T13:28:59.915Z,20.13
2022-12-11T13:31:36.366Z,21.45
2022-12-11T13:34:14.692Z,26.85
2022-12-11T13:36:46.525Z,24.92
2022-12-11T13:39:35.142Z,23.70
2022-12-11T13:42:10.871Z,20.35
2022-12-11T13:44:42.857Z,24.42
2022-12-11T13:47:16.696Z,25.55
2022-12-11T13:49:47.928Z,18.08
2022-12-11T13:52:23.561Z,14.93
2022-12-11T13:54:53.332Z,21.80
2022-12-11T13:57:26.037Z,15.25
2022-12-11T13:59:55.784Z,24.85
2022-12-11T14:02:25.708Z,18.00
2022-12-11T14:05:10.747Z,17.77
2022-12-11T14:07:49.171Z,19.33
2022-12-11T14:10:23.936Z,20.65
2022-12-11T14:13:06.712Z,23.48
2022-12-11T14:15:35.985Z,17.67
2022-12-11T14:18:05.664Z,26.15
2022-12-11T14:20:34.224Z,24.55
2022-12-11T14:23:23.955Z,24.42
2022-12-11T14:25:57.383Z,20.95
2022-12-11T14:28:27.837Z,19.60
2022-12-11T14:30:59.877Z,24.08
2022-12-11T14:33:32.601Z,31.20
2022-12-11T14:36:00.600Z,26.25
2022-12-11T14:38:31.147Z,18.50
2022-12-11T14:41:03.311Z,18.52
2022-12-11T14:43:35.309Z,25.00
2022-12-11T14:46:11.237Z,16.83
2022-12-11T14:51:17.424Z,18.30
2022-12-11T14:53:47.795Z,21.73
2022-12-11T14:56:24.800Z,19.75
2022-12-11T14:58:54.434Z,23.90
2022-12-11T15:01:28.382Z,20.50
2022-12-11T15:04:19.741Z,17.52
2022-12-11T15:06:48.874Z,16.15
2022-12-11T15:14:33.741Z,20.08
2022-12-11T15:17:00.732Z,21.75
2022-12-11T15:19:27.507Z,26.42
2022-12-11T15:24:46.597Z,26.05
2022-12-11T15:27:22.301Z,25.45
2022-12-11T15:29:50.662Z,24.90
2022-12-11T15:32:19.566Z,16.45
2022-12-11T15:34:46.161Z,23.48
2022-12-11T15:37:21.715Z,21.25
2022-12-11T15:39:48.460Z,28.17
2022-12-11T15:42:20.936Z,25.80
2022-12-11T15:44:47.762Z,24.67
2022-12-11T15:47:16.023Z,26.88
2022-12-11T15:49:45.751Z,22.13
2022-12-11T15:52:12.444Z,27.73
2022-12-11T15:54:39.049Z,17.73
2022-12-11T15:57:13.316Z,18.42
2022-12-11T15:59:40.046Z,16.98
2022-12-11T16:02:12.999Z,22.17
2022-12-11T16:04:40.349Z,22.38
2022-12-11T16:07:25.761Z,22.48
2022-12-11T16:09:52.752Z,25.30
2022-12-11T16:12:20.555Z,21.08
2022-12-11T16:14:47.607Z,21.20
2022-12-11T16:17:15.859Z,21.70
2022-12-11T16:19:49.560Z,19.33
2022-12-11T16:22:16.488Z,23.20
2022-12-11T16:24:43.315Z,16.35
2022-12-11T17:26:30.094Z,28.43
2022-12-11T17:28:57.694Z,21.38
2022-12-11T17:31:24.951Z,29.60
2022-12-11T17:33:51.887Z,23.60
2022-12-11T17:36:21.000Z,22.35
2022-12-11T17:38:49.809Z,18.02
2022-12-11T17:41:20.681Z,18.48
2022-12-11T17:43:54.608Z,19.40
2022-12-11T17:46:21.759Z,15.35
2022-12-11T17:48:49.211Z,22.05
2022-12-11T17:51:24.167Z,24.90
2022-12-11T17:53:51.785Z,25.85
2022-12-11T17:56:19.848Z,28.33
2022-12-11T17:58:46.697Z,24.20
2022-12-11T18:01:13.619Z,24.10
2022-12-11T18:03:40.958Z,27.45
2022-12-11T18:06:11.549Z,23.67
2022-12-11T18:08:38.928Z,26.73
2022-12-11T18:11:07.216Z,21.80
2022-12-11T18:13:34.433Z,24.95
2022-12-11T18:16:04.311Z,24.63
2022-12-11T18:18:31.303Z,25.50
2022-12-11T18:20:58.337Z,21.45
2022-12-11T18:23:25.626Z,23.60
2022-12-11T18:25:52.428Z,24.95
2022-12-11T18:28:19.340Z,21.05
2022-12-11T18:30:46.040Z,19.90
2022-12-11T18:33:13.377Z,27.05
2022-12-11T18:35:40.839Z,24.67
2022-12-11T18:38:07.660Z,26.23
2022-12-11T18:40:34.345Z,26.48
2022-12-11T18:43:01.132Z,35.25
2022-12-11T18:45:27.869Z,27.77
2022-12-11T18:47:56.579Z,28.08
2022-12-11T18:50:23.935Z,19.42
2022-12-11T18:52:57.154Z,21.85
2022-12-11T18:55:24.321Z,22.30
2022-12-11T18:57:51.082Z,28.13
2022-12-11T19:00:18.851Z,25.95
2022-12-11T19:02:45.843Z,28.27
2022-12-11T19:05:13.227Z,28.88
2022-12-11T19:07:40.173Z,24.33
2022-12-11T19:10:07.530Z,30.10
2022-12-11T19:12:34.548Z,23.65
2022-12-11T19:15:01.290Z,27.10
2022-12-11T19:17:28.147Z,28.23
2022-12-11T19:19:54.876Z,30.08
2022-12-11T19:22:21.752Z,31.20
2022-12-11T19:24:48.634Z,26.20
2022-12-11T19:27:15.295Z,24.55
2022-12-11T19:29:42.000Z,22.85
2022-12-11T19:32:10.743Z,21.15
2022-12-11T19:34:39.412Z,25.08
2022-12-11T19:37:06.350Z,25.58
2022-12-11T19:39:33.297Z,25.10
2022-12-11T19:42:00.282Z,31.85
2022-12-11T19:44:27.159Z,23.52
2022-12-11T19:46:53.903Z,28.45
2022-12-11T19:49:20.770Z,24.75
2022-12-11T19:51:47.453Z,26.60
2022-12-11T19:54:18.018Z,26.48
2022-12-11T19:56:45.393Z,27.73
2022-12-11T19:59:16.726Z,30.15
2022-12-11T20:01:46.946Z,34.70
2022-12-11T20:04:16.449Z,25.55
2022-12-11T20:06:45.086Z,32.20
2022-12-11T20:09:13.255Z,24.70
2022-12-11T20:11:43.052Z,28.35
2022-12-11T20:14:17.493Z,28.52
2022-12-11T20:17:10.072Z,24.25
2022-12-11T20:19:34.059Z,27.60
2022-12-11T20:22:01.141Z,27.10
2022-12-11T20:24:27.848Z,23.13
2022-12-11T20:26:57.095Z,29.17
2022-12-11T20:29:24.206Z,25.40
2022-12-11T20:31:52.050Z,29.95
2022-12-11T20:34:18.973Z,34.20
2022-12-11T20:36:48.719Z,27.90
2022-12-11T20:39:15.888Z,30.88
2022-12-11T20:41:42.667Z,26.23
2022-12-11T20:44:09.526Z,29.17
2022-12-11T20:46:36.716Z,28.10
2022-12-11T20:49:03.560Z,24.75
2022-12-11T20:51:32.417Z,33.15
2022-12-11T20:54:09.616Z,26.80
2022-12-11T20:56:36.629Z,27.20
2022-12-11T20:59:03.628Z,22.42
2022-12-11T21:01:32.397Z,34.30
2022-12-11T21:04:08.963Z,27.85
2022-12-11T21:06:38.896Z,29.38
2022-12-11T21:09:10.872Z,30.00
2022-12-11T21:11:37.714Z,38.83
2022-12-11T21:14:07.066Z,26.42
2022-12-11T21:16:34.955Z,33.03
2022-12-11T21:19:16.866Z,30.85
2022-12-11T21:21:46.403Z,22.65
2022-12-11T21:24:23.222Z,29.65
2022-12-11T21:26:50.224Z,26.13
2022-12-11T21:29:17.334Z,32.10
2022-12-11T21:31:46.316Z,32.78
2022-12-11T21:34:14.188Z,22.27
2022-12-11T21:36:43.721Z,29.10
2022-12-11T21:39:12.476Z,26.77
2022-12-11T21:41:40.875Z,21.83
2022-12-11T21:46:54.631Z,24.95
2022-12-11T21:49:21.433Z,30.10
2022-12-11T21:51:48.158Z,28.52
2022-12-11T21:54:17.928Z,27.75
2022-12-11T21:56:47.146Z,23.60
2022-12-11T21:59:14.249Z,28.30
2022-12-11T22:01:42.698Z,30.83
2022-12-11T22:04:10.846Z,30.60
2022-12-11T22:06:37.643Z,28.08
2022-12-11T22:09:05.415Z,24.88
2022-12-11T22:11:34.272Z,29.33
2022-12-11T22:14:01.567Z,23.77
2022-12-11T22:16:28.894Z,37.15
2022-12-11T22:18:55.616Z,28.80
2022-12-11T22:21:22.383Z,24.02
2022-12-11T22:23:49.216Z,29.40
2022-12-11T22:26:21.909Z,28.77
2022-12-11T22:28:49.290Z,28.05
2022-12-11T22:31:19.788Z,25.70
2022-12-11T22:33:47.433Z,28.25
2022-12-11T22:36:14.197Z,22.55
2022-12-11T22:38:40.969Z,27.25
2022-12-11T22:41:22.358Z,31.05
2022-12-11T22:43:49.586Z,25.20
2022-12-11T22:46:18.008Z,28.33
2022-12-11T22:48:44.877Z,27.40
2022-12-11T22:51:12.039Z,25.92
2022-12-11T22:53:38.781Z,30.38
2022-12-11T22:56:07.317Z,26.48
2022-12-11T22:58:35.818Z,31.42
2022-12-11T23:01:03.479Z,25.67
2022-12-11T23:03:30.331Z,32.15
2022-12-11T23:06:00.768Z,30.02
2022-12-11T23:08:30.160Z,30.80
2022-12-11T23:10:56.950Z,25.88
2022-12-11T23:13:23.588Z,29.73
2022-12-11T23:15:50.273Z,26.85
2022-12-11T23:18:16.953Z,31.58
2022-12-11T23:20:43.796Z,34.95
2022-12-11T23:23:11.218Z,35.58
2022-12-11T23:25:37.873Z,30.30
2022-12-11T23:28:04.677Z,35.22
2022-12-11T23:30:31.439Z,32.92
2022-12-11T23:32:58.164Z,27.80
2022-12-11T23:35:24.842Z,38.60
2022-12-11T23:37:51.569Z,30.80
2022-12-11T23:40:18.267Z,37.20
2022-12-11T23:42:44.931Z,30.30
2022-12-11T23:45:11.991Z,27.95
2022-12-11T23:47:38.835Z,29.05
2022-12-11T23:50:05.934Z,31.65
2022-12-11T23:52:32.681Z,35.75
2022-12-11T23:54:59.373Z,30.95
2022-12-11T23:57:26.067Z,26.73
2022-12-11T23:59:52.843Z,25.55
